createdAt,value
2018-06-05T00:02:22.399Z,58.10
2018-06-05T00:04:50.703Z,48.40
2018-06-05T00:07:19.018Z,65.67
2018-06-05T00:09:47.327Z,54.83
2018-06-05T00:12:15.691Z,49.43
2018-06-05T00:14:43.988Z,53.93
2018-06-05T00:17:12.296Z,54.50
2018-06-05T00:19:40.599Z,60.43
2018-06-05T00:22:08.923Z,48.90
2018-06-05T00:24:37.252Z,54.10
2018-06-05T00:27:05.684Z,60.90
2018-06-05T00:29:34.035Z,61.53
2018-06-05T00:32:02.335Z,53.47
2018-06-05T00:34:30.672Z,55.50
2018-06-05T00:36:59.525Z,56.77
2018-06-05T00:39:27.851Z,50.40
2018-06-05T00:41:56.203Z,58.47
2018-06-05T00:44:24.503Z,49.33
2018-06-05T00:46:52.814Z,59.47
2018-06-05T00:49:21.384Z,49.97
2018-06-05T00:52:00.945Z,64.63
2018-06-05T00:54:29.280Z,54.53
2018-06-05T00:56:57.608Z,69.67
2018-06-05T00:59:25.932Z,56.40
2018-06-05T01:01:54.228Z,67.23
2018-06-05T01:04:22.537Z,64.53
2018-06-05T01:06:50.844Z,73.97
2018-06-05T01:09:19.147Z,64.30
2018-06-05T01:11:48.287Z,71.50
2018-06-05T01:14:16.666Z,71.43
2018-06-05T01:16:45.005Z,72.13
2018-06-05T01:19:13.304Z,66.00
2018-06-05T01:21:41.609Z,76.83
2018-06-05T01:24:09.932Z,73.53
2018-06-05T01:26:38.232Z,73.60
2018-06-05T01:29:06.547Z,77.43
2018-06-05T01:31:34.851Z,92.93
2018-06-05T01:34:03.192Z,89.27
2018-06-05T01:36:31.487Z,91.23
2018-06-05T01:38:59.807Z,85.07
2018-06-05T01:41:28.937Z,102.87
2018-06-05T01:43:57.246Z,95.13
2018-06-05T01:46:25.560Z,90.07
2018-06-05T01:48:53.912Z,95.23
2018-06-05T01:51:22.235Z,105.03
2018-06-05T01:53:50.543Z,105.67
2018-06-05T01:56:18.896Z,93.13
2018-06-05T01:58:47.195Z,97.47
2018-06-05T02:01:15.573Z,100.27
2018-06-05T02:03:43.900Z,103.73
2018-06-05T02:06:12.287Z,110.83
2018-06-05T02:08:40.619Z,105.87
2018-06-05T02:11:08.920Z,115.57
2018-06-05T02:13:37.235Z,110.20
2018-06-05T02:16:05.548Z,111.80
2018-06-05T02:18:33.867Z,118.80
2018-06-05T02:21:02.176Z,115.27
2018-06-05T02:23:30.524Z,108.80
2018-06-05T02:25:58.840Z,117.00
2018-06-05T02:28:27.141Z,107.43
2018-06-05T02:30:55.452Z,114.27
2018-06-05T02:33:23.763Z,110.17
2018-06-05T02:35:52.076Z,108.97
2018-06-05T02:38:20.384Z,114.63
2018-06-05T02:40:52.699Z,103.00
2018-06-05T02:43:21.462Z,103.73
2018-06-05T02:45:49.949Z,94.80
2018-06-05T02:48:18.291Z,107.23
2018-06-05T02:50:46.616Z,102.20
2018-06-05T02:53:14.932Z,109.13
2018-06-05T02:55:43.929Z,113.43
2018-06-05T02:58:12.247Z,109.90
2018-06-05T03:00:41.090Z,115.30
2018-06-05T03:03:09.403Z,102.83
2018-06-05T03:05:38.979Z,106.40
2018-06-05T03:08:07.303Z,105.83
2018-06-05T03:10:35.618Z,105.80
2018-06-05T03:13:03.955Z,108.97
2018-06-05T03:15:33.792Z,105.07
2018-06-05T03:18:03.501Z,103.27
2018-06-05T03:20:31.815Z,107.20
2018-06-05T03:23:00.112Z,106.10
2018-06-05T03:25:29.139Z,102.33
2018-06-05T03:27:58.467Z,112.30
2018-06-05T03:30:26.780Z,107.03
2018-06-05T03:32:55.112Z,111.90
2018-06-05T03:35:23.431Z,115.40
2018-06-05T03:37:51.748Z,115.40
2018-06-05T03:40:20.063Z,125.17
2018-06-05T03:42:48.376Z,125.07
2018-06-05T03:45:16.696Z,115.60
2018-06-05T03:47:45.010Z,129.10
2018-06-05T03:50:13.331Z,127.60
2018-06-05T03:52:41.636Z,124.77
2018-06-05T03:55:09.976Z,137.37
2018-06-05T03:57:38.296Z,127.67
2018-06-05T04:00:06.629Z,122.93
2018-06-05T04:02:34.971Z,125.80
2018-06-05T04:05:03.810Z,123.60
2018-06-05T04:07:32.269Z,132.00
2018-06-05T04:10:00.580Z,122.70
2018-06-05T04:12:28.913Z,122.23
2018-06-05T04:14:57.223Z,115.80
2018-06-05T04:17:25.559Z,126.67
2018-06-05T04:19:53.876Z,120.80
2018-06-05T04:22:22.192Z,125.13
2018-06-05T04:24:50.492Z,115.47
2018-06-05T04:27:19.360Z,112.40
2018-06-05T04:29:47.708Z,124.30
2018-06-05T04:32:16.015Z,125.27
2018-06-05T04:34:44.335Z,113.37
2018-06-05T04:37:12.656Z,116.90
2018-06-05T04:39:41.000Z,120.90
2018-06-05T04:42:09.303Z,111.87
2018-06-05T04:44:37.620Z,109.40
2018-06-05T04:47:05.949Z,112.00
2018-06-05T04:49:34.275Z,110.33
2018-06-05T04:52:02.686Z,118.10
2018-06-05T04:54:30.892Z,110.27
2018-06-05T04:56:59.210Z,105.67
2018-06-05T04:59:27.515Z,103.70
2018-06-05T05:01:55.871Z,108.07
2018-06-05T05:04:24.207Z,100.40
2018-06-05T05:06:52.539Z,101.80
2018-06-05T05:09:21.329Z,108.73
2018-06-05T05:11:49.679Z,97.07
2018-06-05T05:14:18.592Z,80.80
2018-06-05T05:16:46.952Z,89.43
2018-06-05T05:19:15.249Z,81.97
2018-06-05T05:21:43.619Z,77.07
2018-06-05T05:24:11.935Z,81.90
2018-06-05T05:26:40.483Z,96.53
2018-06-05T05:29:09.524Z,83.07
2018-06-05T05:31:37.860Z,74.47
2018-06-05T05:34:06.740Z,84.27
2018-06-05T05:36:35.041Z,86.73
2018-06-05T05:39:03.740Z,89.77
2018-06-05T05:41:32.068Z,68.93
2018-06-05T05:44:00.387Z,77.37
2018-06-05T05:46:28.725Z,86.37
2018-06-05T05:48:57.059Z,92.97
2018-06-05T05:51:25.547Z,95.60
2018-06-05T05:53:53.954Z,95.60
2018-06-05T05:56:22.329Z,88.60
2018-06-05T05:58:50.688Z,74.20
2018-06-05T06:01:19.111Z,81.67
2018-06-05T06:03:47.451Z,85.67
2018-06-05T06:06:15.777Z,69.50
2018-06-05T06:08:44.096Z,78.17
2018-06-05T06:11:12.404Z,76.10
2018-06-05T06:13:40.712Z,74.80
2018-06-05T06:16:09.391Z,77.73
2018-06-05T06:18:37.737Z,80.40
2018-06-05T06:21:06.820Z,76.53
2018-06-05T06:23:35.132Z,65.27
2018-06-05T06:26:03.537Z,65.27
2018-06-05T06:28:31.859Z,71.17
2018-06-05T06:31:00.195Z,63.00
2018-06-05T06:33:28.532Z,68.47
2018-06-05T06:35:56.840Z,62.20
2018-06-05T06:38:25.167Z,69.97
2018-06-05T06:40:53.589Z,55.27
2018-06-05T06:43:21.884Z,60.63
2018-06-05T06:45:50.209Z,49.47
2018-06-05T06:48:18.521Z,55.37
2018-06-05T06:50:46.857Z,48.13
2018-06-05T06:53:15.164Z,57.37
2018-06-05T06:55:43.511Z,69.40
2018-06-05T06:58:11.836Z,59.13
2018-06-05T07:00:40.765Z,60.83
2018-06-05T07:03:09.068Z,68.17
2018-06-05T07:05:37.383Z,61.97
2018-06-05T07:08:05.864Z,56.17
2018-06-05T07:10:35.038Z,64.07
2018-06-05T07:13:04.012Z,70.50
2018-06-05T07:15:32.319Z,60.00
2018-06-05T07:18:00.636Z,62.20
2018-06-05T07:20:28.990Z,55.90
2018-06-05T07:22:57.287Z,67.03
2018-06-05T07:25:25.590Z,52.07
2018-06-05T07:27:53.916Z,48.17
2018-06-05T07:30:22.235Z,49.90
2018-06-05T07:32:50.541Z,53.77
2018-06-05T07:35:18.851Z,58.50
2018-06-05T07:37:47.176Z,59.57
2018-06-05T07:40:15.499Z,61.50
2018-06-05T07:42:43.823Z,52.10
2018-06-05T07:45:12.133Z,65.80
2018-06-05T07:47:40.470Z,66.63
2018-06-05T07:50:08.880Z,62.30
2018-06-05T07:52:37.195Z,61.33
2018-06-05T07:55:05.892Z,66.50
2018-06-05T07:57:34.189Z,66.17
2018-06-05T08:00:02.740Z,65.63
2018-06-05T08:02:31.072Z,61.20
2018-06-05T08:04:59.375Z,61.07
2018-06-05T08:07:27.700Z,66.20
2018-06-05T08:09:56.021Z,58.10
2018-06-05T08:12:24.336Z,62.37
2018-06-05T08:14:52.655Z,61.70
2018-06-05T08:17:20.965Z,61.87
2018-06-05T08:19:49.276Z,53.00
2018-06-05T08:22:17.581Z,52.47
2018-06-05T08:24:45.887Z,55.93
2018-06-05T08:27:14.680Z,50.50
2018-06-05T08:29:42.979Z,48.13
2018-06-05T08:32:17.485Z,52.63
2018-06-05T08:34:45.787Z,52.13
2018-06-05T08:37:14.096Z,51.10
2018-06-05T08:39:42.427Z,51.50
2018-06-05T08:42:10.756Z,52.60
2018-06-05T08:44:39.044Z,68.43
2018-06-05T08:47:07.383Z,88.57
2018-06-05T08:49:35.687Z,89.93
2018-06-05T08:52:04.331Z,68.97
2018-06-05T08:54:32.627Z,146.47
2018-06-05T08:57:00.960Z,71.60
2018-06-05T08:59:29.257Z,50.63
2018-06-05T09:01:58.416Z,50.03
2018-06-05T09:04:26.738Z,53.90
2018-06-05T09:06:55.040Z,51.50
2018-06-05T09:09:23.409Z,49.97
2018-06-05T09:11:51.713Z,41.33
2018-06-05T09:14:20.024Z,55.73
2018-06-05T09:16:48.383Z,53.50
2018-06-05T09:19:16.728Z,52.40
2018-06-05T09:21:45.055Z,48.60
2018-06-05T09:24:13.357Z,56.67
2018-06-05T09:26:41.672Z,54.17
2018-06-05T09:29:10.029Z,54.80
2018-06-05T09:31:38.330Z,50.40
2018-06-05T09:34:06.623Z,64.77
2018-06-05T09:36:34.949Z,60.70
2018-06-05T09:39:03.405Z,62.40
2018-06-05T09:41:31.716Z,66.03
2018-06-05T09:44:00.024Z,53.27
2018-06-05T09:46:28.327Z,54.07
2018-06-05T09:48:56.645Z,61.87
2018-06-05T09:51:24.976Z,57.03
2018-06-05T09:53:53.909Z,55.80
2018-06-05T09:56:22.208Z,48.97
2018-06-05T09:58:50.535Z,53.23
2018-06-05T10:01:19.596Z,55.17
2018-06-05T10:03:47.919Z,60.27
2018-06-05T10:06:16.260Z,53.87
2018-06-05T10:08:44.579Z,64.20
2018-06-05T10:11:12.919Z,50.70
2018-06-05T10:13:41.258Z,52.43
2018-06-05T10:16:09.564Z,48.77
2018-06-05T10:18:37.900Z,56.60
2018-06-05T10:21:06.256Z,51.53
2018-06-05T10:23:34.564Z,58.60
2018-06-05T10:26:02.885Z,55.00
2018-06-05T10:28:31.188Z,53.33
2018-06-05T10:30:59.512Z,51.00
2018-06-05T10:33:27.807Z,50.30
2018-06-05T10:35:56.116Z,53.70
2018-06-05T10:38:24.420Z,46.23
2018-06-05T10:40:52.744Z,49.27
2018-06-05T10:43:21.060Z,51.20
2018-06-05T10:45:49.376Z,51.10
2018-06-05T10:48:17.704Z,49.87
2018-06-05T10:50:46.108Z,48.60
2018-06-05T10:53:14.420Z,55.50
2018-06-05T10:55:42.759Z,49.23
2018-06-05T10:58:11.048Z,56.80
2018-06-05T11:00:39.358Z,54.97
2018-06-05T11:03:07.692Z,54.23
2018-06-05T11:05:36.008Z,49.17
2018-06-05T11:08:04.440Z,47.27
2018-06-05T11:10:32.748Z,59.97
2018-06-05T11:13:01.067Z,53.60
2018-06-05T11:15:29.376Z,72.90
2018-06-05T11:17:57.676Z,54.80
2018-06-05T11:20:26.008Z,50.07
2018-06-05T11:22:54.332Z,55.70
2018-06-05T11:25:22.660Z,57.47
2018-06-05T11:27:51.062Z,53.20
2018-06-05T11:30:19.372Z,53.17
2018-06-05T11:32:47.688Z,53.80
2018-06-05T11:35:16.024Z,48.33
2018-06-05T11:37:44.336Z,65.90
2018-06-05T11:40:12.756Z,56.30
2018-06-05T11:42:41.111Z,53.70
2018-06-05T11:45:09.436Z,62.40
2018-06-05T11:47:37.756Z,53.90
2018-06-05T11:50:06.098Z,50.57
2018-06-05T11:52:34.428Z,54.80
2018-06-05T11:55:03.804Z,52.53
2018-06-05T11:57:32.432Z,62.47
2018-06-05T12:00:00.752Z,50.07
2018-06-05T12:02:29.083Z,52.40
2018-06-05T12:04:57.396Z,62.43
2018-06-05T12:07:26.663Z,56.10
2018-06-05T12:09:55.600Z,57.10
2018-06-05T12:12:23.903Z,59.43
2018-06-05T12:14:52.220Z,74.47
2018-06-05T12:17:20.536Z,53.10
2018-06-05T12:19:48.872Z,52.40
2018-06-05T12:22:17.208Z,58.50
2018-06-05T12:24:45.515Z,57.03
2018-06-05T12:27:13.832Z,55.17
2018-06-05T12:29:42.144Z,54.00
2018-06-05T12:32:10.455Z,61.53
2018-06-05T12:34:38.764Z,51.07
2018-06-05T12:37:07.445Z,54.73
2018-06-05T12:39:35.748Z,50.70
2018-06-05T12:42:04.056Z,58.90
2018-06-05T12:44:32.372Z,57.37
2018-06-05T12:47:00.677Z,58.13
2018-06-05T12:49:29.004Z,59.87
2018-06-05T12:51:57.320Z,58.43
2018-06-05T12:54:25.674Z,63.57
2018-06-05T12:56:53.972Z,80.90
2018-06-05T12:59:22.307Z,58.90
2018-06-05T13:01:50.612Z,63.37
2018-06-05T13:04:19.492Z,65.20
2018-06-05T13:06:47.807Z,53.83
2018-06-05T13:09:17.260Z,57.40
2018-06-05T13:11:45.622Z,54.17
2018-06-05T13:14:13.948Z,61.00
2018-06-05T13:16:42.265Z,59.97
2018-06-05T13:19:10.559Z,57.93
2018-06-05T13:21:39.145Z,50.67
2018-06-05T13:24:07.465Z,55.10
2018-06-05T13:26:35.780Z,56.90
2018-06-05T13:29:04.831Z,47.10
2018-06-05T13:31:33.138Z,59.17
2018-06-05T13:34:01.461Z,52.83
2018-06-05T13:36:29.799Z,53.90
2018-06-05T13:38:58.132Z,52.50
2018-06-05T13:41:26.443Z,54.43
2018-06-05T13:43:54.785Z,54.80
2018-06-05T13:46:23.097Z,54.73
2018-06-05T13:48:51.391Z,56.53
2018-06-05T13:51:19.724Z,53.33
2018-06-05T13:53:48.053Z,60.60
2018-06-05T13:56:16.411Z,60.40
2018-06-05T13:58:44.712Z,62.20
2018-06-05T14:01:13.023Z,54.40
2018-06-05T14:03:41.332Z,61.53
2018-06-05T14:06:09.687Z,64.03
2018-06-05T14:08:38.001Z,52.23
2018-06-05T14:11:06.335Z,56.47
2018-06-05T14:13:34.652Z,53.33
2018-06-05T14:16:03.028Z,58.60
2018-06-05T14:18:31.339Z,61.93
2018-06-05T14:20:59.655Z,69.80
2018-06-05T14:23:27.996Z,59.90
2018-06-05T14:25:56.307Z,51.80
2018-06-05T14:28:24.640Z,60.60
2018-06-05T14:30:53.185Z,59.57
2018-06-05T14:33:21.509Z,60.23
2018-06-05T14:35:49.820Z,58.10
2018-06-05T14:38:18.108Z,54.43
2018-06-05T14:40:46.419Z,63.23
2018-06-05T14:43:14.776Z,70.23
2018-06-05T14:45:43.151Z,60.07
2018-06-05T14:48:11.488Z,54.20
2018-06-05T14:50:40.424Z,62.50
2018-06-05T14:53:08.719Z,61.40
2018-06-05T14:55:37.025Z,57.73
2018-06-05T14:58:05.363Z,56.37
2018-06-05T15:00:33.672Z,56.40
2018-06-05T15:03:01.994Z,61.43
2018-06-05T15:05:30.293Z,58.80
2018-06-05T15:07:58.604Z,58.73
2018-06-05T15:10:26.903Z,61.40
2018-06-05T15:12:55.244Z,57.47
2018-06-05T15:15:23.556Z,43.23
2018-06-05T15:17:51.863Z,49.20
2018-06-05T15:20:20.184Z,48.80
2018-06-05T15:22:48.487Z,42.90
2018-06-05T15:25:16.909Z,48.70
2018-06-05T15:27:45.231Z,46.77
2018-06-05T15:30:13.588Z,49.43
2018-06-05T15:32:41.884Z,40.27
2018-06-05T15:35:10.216Z,37.53
2018-06-05T15:37:38.520Z,42.80
2018-06-05T15:40:07.091Z,38.40
2018-06-05T15:42:35.401Z,42.00
2018-06-05T15:45:04.172Z,38.73
2018-06-05T15:47:32.501Z,44.00
2018-06-05T15:50:00.903Z,40.50
2018-06-05T15:52:29.904Z,46.23
2018-06-05T15:54:58.216Z,36.83
2018-06-05T15:57:26.651Z,44.40
2018-06-05T15:59:54.955Z,39.57
2018-06-05T16:02:23.288Z,51.00
2018-06-05T16:04:52.452Z,46.43
2018-06-05T16:07:22.416Z,52.27
2018-06-05T16:09:50.827Z,47.90
2018-06-05T16:12:19.269Z,46.20
2018-06-05T16:14:47.600Z,55.30
2018-06-05T16:17:16.672Z,53.80
2018-06-05T16:19:45.121Z,52.40
2018-06-05T16:22:14.208Z,51.67
2018-06-05T16:24:42.514Z,48.90
2018-06-05T16:27:10.860Z,47.30
2018-06-05T16:29:39.236Z,50.47
2018-06-05T16:32:07.618Z,50.10
2018-06-05T16:34:35.940Z,50.27
2018-06-05T16:37:04.255Z,49.03
2018-06-05T16:39:32.572Z,49.40
2018-06-05T16:42:00.924Z,52.43
2018-06-05T16:44:29.233Z,46.53
2018-06-05T16:46:57.589Z,45.23
2018-06-05T16:49:25.935Z,46.53
2018-06-05T16:51:54.255Z,45.70
2018-06-05T16:54:22.594Z,47.20
2018-06-05T16:56:50.916Z,40.10
2018-06-05T16:59:19.233Z,39.20
2018-06-05T17:01:47.536Z,38.30
2018-06-05T17:04:15.915Z,45.70
2018-06-05T17:06:44.188Z,49.73
2018-06-05T17:09:12.500Z,38.30
2018-06-05T17:11:40.817Z,37.57
2018-06-05T17:14:09.133Z,41.00
2018-06-05T17:16:37.452Z,37.93
2018-06-05T17:19:05.789Z,33.00
2018-06-05T17:21:34.096Z,38.33
2018-06-05T17:24:02.448Z,33.23
2018-06-05T17:26:30.747Z,34.73
2018-06-05T17:28:59.053Z,37.43
2018-06-05T17:31:27.388Z,38.17
2018-06-05T17:33:55.728Z,34.83
2018-06-05T17:36:24.139Z,36.63
2018-06-05T17:38:52.456Z,43.23
2018-06-05T17:41:20.771Z,37.13
2018-06-05T17:43:49.587Z,39.30
2018-06-05T17:46:27.549Z,37.80
2018-06-05T17:48:56.036Z,49.23
2018-06-05T17:51:24.698Z,39.50
2018-06-05T17:53:52.788Z,49.70
2018-06-05T17:56:21.144Z,47.03
2018-06-05T17:58:49.476Z,45.90
2018-06-05T18:01:17.785Z,43.47
2018-06-05T18:03:46.110Z,52.17
2018-06-05T18:06:14.436Z,47.97
2018-06-05T18:08:42.897Z,50.20
2018-06-05T18:11:11.217Z,46.60
2018-06-05T18:13:39.523Z,47.10
2018-06-05T18:16:07.994Z,50.90
2018-06-05T18:18:36.383Z,49.90
2018-06-05T18:21:04.723Z,51.90
2018-06-05T18:23:33.203Z,51.70
2018-06-05T18:26:01.540Z,53.80
2018-06-05T18:28:29.845Z,56.40
2018-06-05T18:30:58.165Z,54.13
2018-06-05T18:33:26.595Z,56.93
2018-06-05T18:35:54.984Z,60.13
2018-06-05T18:38:23.407Z,58.43
2018-06-05T18:40:51.827Z,60.70
2018-06-05T18:43:20.156Z,58.73
2018-06-05T18:45:48.701Z,60.30
2018-06-05T18:48:17.226Z,63.23
2018-06-05T18:50:45.531Z,56.30
2018-06-05T18:53:14.093Z,61.93
2018-06-05T18:55:42.767Z,58.20
2018-06-05T18:58:11.036Z,60.27
2018-06-05T19:00:39.399Z,59.47
2018-06-05T19:03:07.656Z,60.80
2018-06-05T19:05:35.986Z,65.37
2018-06-05T19:08:04.369Z,62.47
2018-06-05T19:10:33.444Z,67.77
2018-06-05T19:13:01.843Z,67.20
2018-06-05T19:15:30.173Z,67.33
2018-06-05T19:17:58.568Z,75.63
2018-06-05T19:20:26.871Z,70.37
2018-06-05T19:22:55.223Z,61.50
2018-06-05T19:25:23.600Z,65.17
2018-06-05T19:27:51.962Z,55.63
2018-06-05T19:30:20.358Z,71.13
2018-06-05T19:32:48.661Z,63.70
2018-06-05T19:35:16.996Z,56.17
2018-06-05T19:37:45.315Z,60.60
2018-06-05T19:40:13.628Z,53.20
2018-06-05T19:42:41.952Z,49.77
2018-06-05T19:45:10.255Z,57.33
2018-06-05T19:47:38.588Z,52.03
2018-06-05T19:50:06.893Z,55.43
2018-06-05T19:52:35.208Z,54.30
2018-06-05T19:55:04.632Z,59.37
2018-06-05T19:57:32.956Z,56.37
2018-06-05T20:00:01.256Z,56.37
2018-06-05T20:02:29.597Z,51.47
2018-06-05T20:04:57.901Z,57.27
2018-06-05T20:07:26.228Z,52.70
2018-06-05T20:09:54.526Z,51.33
2018-06-05T20:12:22.837Z,62.77
2018-06-05T20:14:51.156Z,55.83
2018-06-05T20:17:20.052Z,59.70
2018-06-05T20:19:48.363Z,66.33
2018-06-05T20:22:17.427Z,64.47
2018-06-05T20:24:45.752Z,68.10
2018-06-05T20:27:14.509Z,64.53
2018-06-05T20:29:44.787Z,60.30
2018-06-05T20:32:13.119Z,69.23
2018-06-05T20:34:41.431Z,80.37
2018-06-05T20:37:10.068Z,63.57
2018-06-05T20:39:38.396Z,67.80
2018-06-05T20:42:06.703Z,66.40
2018-06-05T20:44:35.036Z,68.63
2018-06-05T20:47:03.337Z,62.90
2018-06-05T20:49:31.648Z,78.50
2018-06-05T20:52:00.078Z,71.23
2018-06-05T20:54:28.360Z,76.00
2018-06-05T20:56:56.680Z,66.53
2018-06-05T20:59:26.455Z,72.53
2018-06-05T21:01:54.915Z,72.77
2018-06-05T21:04:23.230Z,76.03
2018-06-05T21:06:52.409Z,72.17
2018-06-05T21:09:20.735Z,74.07
2018-06-05T21:11:49.057Z,82.63
2018-06-05T21:14:17.373Z,70.03
2018-06-05T21:16:45.692Z,72.93
2018-06-05T21:19:14.044Z,72.37
2018-06-05T21:21:42.387Z,73.00
2018-06-05T21:24:12.288Z,74.57
2018-06-05T21:26:40.588Z,74.00
2018-06-05T21:29:08.932Z,72.30
2018-06-05T21:31:37.258Z,79.03
2018-06-05T21:34:05.596Z,69.90
2018-06-05T21:36:33.919Z,79.07
2018-06-05T21:39:02.276Z,78.77
2018-06-05T21:41:30.588Z,74.33
2018-06-05T21:43:58.920Z,76.87
2018-06-05T21:46:27.238Z,72.00
2018-06-05T21:48:55.544Z,84.73
2018-06-05T21:51:24.464Z,66.63
2018-06-05T21:53:52.796Z,66.17
2018-06-05T21:56:21.104Z,67.70
2018-06-05T21:58:49.453Z,68.23
2018-06-05T22:01:18.258Z,69.53
2018-06-05T22:03:46.560Z,73.90
2018-06-05T22:06:14.902Z,76.37
2018-06-05T22:08:43.216Z,78.50
2018-06-05T22:11:11.559Z,78.47
2018-06-05T22:13:39.876Z,78.70
2018-06-05T22:16:08.264Z,93.33
2018-06-05T22:18:36.626Z,76.47
2018-06-05T22:21:04.941Z,85.77
2018-06-05T22:23:33.243Z,87.77
2018-06-05T22:26:01.588Z,97.03
2018-06-05T22:28:29.898Z,84.80
2018-06-05T22:30:58.228Z,89.80
2018-06-05T22:33:27.305Z,91.13
2018-06-05T22:35:55.650Z,88.53
2018-06-05T22:38:23.976Z,89.77
2018-06-05T22:40:52.288Z,84.30
2018-06-05T22:43:20.697Z,74.50
2018-06-05T22:45:49.379Z,77.40
2018-06-05T22:48:17.705Z,86.50
2018-06-05T22:50:46.008Z,83.77
2018-06-05T22:53:14.332Z,80.67
2018-06-05T22:55:42.636Z,82.00
2018-06-05T22:58:10.956Z,73.33
2018-06-05T23:00:40.108Z,75.53
2018-06-05T23:03:08.500Z,75.30
2018-06-05T23:05:36.881Z,71.90
2018-06-05T23:08:05.317Z,73.10
2018-06-05T23:10:33.632Z,83.47
2018-06-05T23:13:01.937Z,78.13
2018-06-05T23:15:30.902Z,73.47
2018-06-05T23:17:59.451Z,65.90
2018-06-05T23:20:27.764Z,66.97
2018-06-05T23:22:56.128Z,69.37
2018-06-05T23:25:24.460Z,73.73
2018-06-05T23:27:53.428Z,77.83
2018-06-05T23:30:21.810Z,80.80
2018-06-05T23:32:50.443Z,78.70
2018-06-05T23:35:18.759Z,88.20
2018-06-05T23:37:48.116Z,96.77
2018-06-05T23:40:18.226Z,93.13
2018-06-05T23:42:46.536Z,93.37
2018-06-05T23:45:14.905Z,88.87
2018-06-05T23:47:43.436Z,79.07
2018-06-05T23:50:12.264Z,71.80
2018-06-05T23:52:40.604Z,81.17
2018-06-05T23:55:08.900Z,91.13
2018-06-05T23:57:37.266Z,86.30
